Two Hills, Canada
Current Conditions -  °F | °C
As of 1:00 PM on Sunday 21 Dec 2014 (Local Time) from CYED Reporting Station
Overcast Overcast  
Wind Chill:   Ceiling: 2100
Heat Index: 18°   Visibility: 3mi
Dew Point: 12°   Wind: 6mph
Humidity: 79%   Direction: 290°WNW
Pressure: 29.38"   Gusts: NA
Location:  53.72°N, 111.75°W
Report Text: CYED 212000Z AUTO 29005KT 3SM BKN021 OVC038 M08/M11 A2938 RMKSLP989
Loading
Personal Weather Stations






























Interactive Weather Map New forecast layout! Learn more

10-Day Weather Forecast

Advertisements
Track Severe Weather on mobile